createdAt,value
2019-01-26T00:01:10.079Z,35.20
2019-01-26T00:03:39.423Z,35.60
2019-01-26T00:06:08.352Z,33.08
2019-01-26T00:08:37.424Z,34.20
2019-01-26T00:11:06.140Z,36.68
2019-01-26T00:13:35.144Z,33.92
2019-01-26T00:16:03.850Z,32.73
2019-01-26T00:18:32.900Z,38.57
2019-01-26T00:21:01.863Z,35.48
2019-01-26T00:23:30.625Z,35.80
2019-01-26T00:25:59.365Z,38.23
2019-01-26T00:28:28.274Z,33.85
2019-01-26T00:30:57.518Z,39.08
2019-01-26T00:33:26.295Z,36.00
2019-01-26T00:35:55.092Z,34.00
2019-01-26T00:38:26.176Z,36.55
2019-01-26T00:40:55.218Z,35.13
2019-01-26T00:43:23.957Z,37.95
2019-01-26T00:45:53.620Z,36.10
2019-01-26T00:48:22.381Z,36.48
2019-01-26T00:50:51.087Z,35.95
2019-01-26T00:53:19.855Z,36.70
2019-01-26T00:55:48.685Z,35.33
2019-01-26T00:58:17.482Z,37.53
2019-01-26T01:00:46.259Z,36.30
2019-01-26T01:03:15.158Z,36.55
2019-01-26T01:05:44.342Z,36.65
2019-01-26T01:08:13.322Z,36.30
2019-01-26T01:10:42.121Z,36.13
2019-01-26T01:13:10.938Z,40.15
2019-01-26T01:15:39.692Z,38.93
2019-01-26T01:18:09.835Z,38.47
2019-01-26T01:20:38.540Z,36.68
2019-01-26T01:23:07.700Z,37.93
2019-01-26T01:25:36.421Z,41.15
2019-01-26T01:28:05.800Z,34.95
2019-01-26T01:30:34.547Z,37.90
2019-01-26T01:33:03.562Z,37.73
2019-01-26T01:35:33.024Z,39.33
2019-01-26T01:38:01.731Z,38.38
2019-01-26T01:40:30.495Z,37.40
2019-01-26T01:42:59.314Z,38.30
2019-01-26T01:45:28.112Z,39.48
2019-01-26T01:47:57.065Z,38.50
2019-01-26T01:50:27.347Z,37.93
2019-01-26T01:52:56.059Z,35.85
2019-01-26T01:55:25.070Z,37.65
2019-01-26T01:57:53.759Z,35.68
2019-01-26T02:00:24.252Z,35.10
2019-01-26T02:02:52.945Z,35.03
2019-01-26T02:05:21.811Z,36.10
2019-01-26T02:07:50.879Z,35.08
2019-01-26T02:10:21.268Z,33.85
2019-01-26T02:12:50.081Z,35.83
2019-01-26T02:15:18.984Z,33.95
2019-01-26T02:17:47.734Z,33.55
2019-01-26T02:20:19.332Z,32.00
2019-01-26T02:22:48.350Z,35.48
2019-01-26T02:25:17.182Z,32.60
2019-01-26T02:27:47.042Z,34.40
2019-01-26T02:30:18.925Z,33.23
2019-01-26T02:36:32.185Z,33.63
2019-01-26T02:39:01.135Z,33.33
2019-01-26T02:41:29.844Z,34.60
2019-01-26T02:43:58.556Z,33.35
2019-01-26T02:46:27.309Z,32.25
2019-01-26T02:48:56.325Z,33.00
2019-01-26T02:51:25.372Z,35.23
2019-01-26T02:54:13.349Z,33.53
2019-01-26T02:56:42.099Z,31.57
2019-01-26T02:59:10.817Z,31.90
2019-01-26T03:01:39.599Z,33.50
2019-01-26T03:04:08.395Z,34.15
2019-01-26T03:06:37.166Z,32.95
2019-01-26T03:09:09.075Z,32.45
2019-01-26T03:11:37.864Z,32.67
2019-01-26T03:14:06.690Z,33.05
2019-01-26T03:16:35.447Z,31.93
2019-01-26T03:19:04.363Z,32.93
2019-01-26T03:21:33.150Z,31.17
2019-01-26T03:24:02.119Z,29.65
2019-01-26T03:26:31.688Z,29.37
2019-01-26T03:29:00.695Z,32.58
2019-01-26T03:31:29.522Z,31.73
2019-01-26T03:33:58.240Z,32.45
2019-01-26T03:36:26.937Z,31.35
2019-01-26T03:38:55.942Z,31.42
2019-01-26T03:41:24.719Z,31.45
2019-01-26T03:43:53.542Z,33.88
2019-01-26T03:46:22.302Z,29.75
2019-01-26T03:48:51.064Z,32.15
2019-01-26T03:51:20.119Z,29.50
2019-01-26T03:53:48.881Z,31.23
2019-01-26T03:56:17.928Z,31.45
2019-01-26T03:58:46.781Z,30.65
2019-01-26T04:01:15.556Z,31.85
2019-01-26T04:03:44.332Z,31.52
2019-01-26T04:06:13.089Z,32.75
2019-01-26T04:08:41.841Z,28.98
2019-01-26T04:11:11.096Z,32.83
2019-01-26T04:13:40.057Z,33.47
2019-01-26T04:16:09.068Z,32.78
2019-01-26T04:18:37.788Z,31.02
2019-01-26T04:21:06.799Z,33.60
2019-01-26T04:23:35.512Z,30.55
2019-01-26T04:26:04.282Z,29.37
2019-01-26T04:28:33.316Z,34.53
2019-01-26T04:31:02.115Z,31.80
2019-01-26T04:33:30.853Z,32.43
2019-01-26T04:35:59.949Z,33.37
2019-01-26T04:38:28.693Z,30.62
2019-01-26T04:40:57.402Z,31.93
2019-01-26T04:43:26.144Z,31.68
2019-01-26T04:45:54.874Z,32.13
2019-01-26T04:48:23.626Z,31.07
2019-01-26T04:50:52.367Z,31.73
2019-01-26T04:53:21.158Z,35.48
2019-01-26T04:55:50.176Z,31.52
2019-01-26T04:58:18.914Z,30.88
2019-01-26T05:00:47.692Z,33.45
2019-01-26T05:03:16.734Z,33.35
2019-01-26T05:05:45.464Z,33.73
2019-01-26T05:08:14.233Z,34.78
2019-01-26T05:10:42.977Z,30.30
2019-01-26T05:13:11.701Z,30.40
2019-01-26T05:15:40.541Z,31.00
2019-01-26T05:18:09.332Z,32.33
2019-01-26T05:20:38.375Z,30.40
2019-01-26T05:23:07.103Z,30.57
2019-01-26T05:25:36.466Z,31.87
2019-01-26T05:28:05.669Z,31.80
2019-01-26T05:30:34.519Z,28.15
2019-01-26T05:33:03.288Z,32.90
2019-01-26T05:35:32.270Z,30.27
2019-01-26T05:38:01.299Z,30.08
2019-01-26T05:40:30.074Z,30.25
2019-01-26T05:42:58.822Z,32.28
2019-01-26T05:45:27.628Z,30.60
2019-01-26T05:47:56.775Z,31.68
2019-01-26T05:50:26.714Z,30.65
2019-01-26T05:52:55.647Z,33.30
2019-01-26T05:55:24.511Z,32.35
2019-01-26T05:57:53.433Z,30.17
2019-01-26T06:00:27.858Z,34.05
2019-01-26T06:02:56.580Z,31.90
2019-01-26T06:05:25.462Z,33.45
2019-01-26T06:07:54.235Z,32.13
2019-01-26T06:10:23.164Z,32.23
2019-01-26T06:12:52.033Z,29.77
2019-01-26T06:15:20.744Z,32.70
2019-01-26T06:17:54.990Z,29.63
2019-01-26T06:20:20.361Z,32.55
2019-01-26T06:22:49.192Z,32.65
2019-01-26T06:25:18.446Z,30.85
2019-01-26T06:27:47.427Z,35.10
2019-01-26T06:30:18.978Z,31.40
2019-01-26T06:32:48.034Z,31.48
2019-01-26T06:35:16.851Z,31.62
2019-01-26T06:37:45.642Z,31.48
2019-01-26T06:40:16.071Z,30.68
2019-01-26T06:42:44.867Z,32.75
2019-01-26T06:45:15.161Z,27.95
2019-01-26T06:47:43.880Z,28.20
2019-01-26T06:50:15.945Z,30.97
2019-01-26T06:52:44.676Z,30.00
2019-01-26T06:55:13.848Z,27.32
2019-01-26T06:57:42.656Z,27.65
2019-01-26T07:00:14.445Z,27.20
2019-01-26T07:02:43.423Z,27.35
2019-01-26T07:05:30.331Z,25.72
2019-01-26T07:07:59.230Z,28.05
2019-01-26T07:10:28.489Z,28.47
2019-01-26T07:12:57.274Z,27.48
2019-01-26T07:15:26.541Z,27.22
2019-01-26T07:17:55.264Z,26.55
2019-01-26T07:20:24.627Z,27.93
2019-01-26T07:22:53.442Z,26.13
2019-01-26T07:25:22.323Z,26.27
2019-01-26T07:27:51.433Z,25.92
2019-01-26T07:30:21.460Z,25.27
2019-01-26T07:32:50.444Z,24.67
2019-01-26T07:35:22.620Z,24.07
2019-01-26T07:37:51.568Z,23.47
2019-01-26T07:40:20.764Z,24.63
2019-01-26T07:42:53.374Z,23.83
2019-01-26T07:45:22.645Z,22.70
2019-01-26T07:47:52.284Z,23.10
2019-01-26T07:50:24.699Z,21.77
2019-01-26T07:52:56.877Z,22.17
2019-01-26T07:55:26.029Z,22.43
2019-01-26T07:57:55.100Z,21.48
2019-01-26T08:00:25.231Z,20.08
2019-01-26T08:02:54.246Z,21.43
2019-01-26T08:05:23.117Z,21.15
2019-01-26T08:07:52.001Z,20.80
2019-01-26T08:10:22.822Z,23.07
2019-01-26T08:12:53.984Z,20.35
2019-01-26T08:15:25.434Z,21.07
2019-01-26T08:17:54.358Z,18.30
2019-01-26T08:20:23.508Z,20.30
2019-01-26T08:22:52.722Z,20.52
2019-01-26T08:25:21.524Z,19.52
2019-01-26T08:27:50.588Z,22.50
2019-01-26T08:30:20.962Z,19.80
2019-01-26T08:32:50.451Z,18.33
2019-01-26T08:35:19.448Z,20.35
2019-01-26T08:37:48.475Z,21.02
2019-01-26T08:40:18.550Z,19.70
2019-01-26T08:42:47.610Z,19.27
2019-01-26T08:45:18.177Z,19.20
2019-01-26T08:47:49.852Z,19.50
2019-01-26T08:50:21.184Z,17.57
2019-01-26T08:52:50.258Z,18.73
2019-01-26T08:55:19.061Z,17.50
2019-01-26T08:57:48.033Z,19.20
2019-01-26T09:00:21.906Z,18.48
2019-01-26T09:03:13.163Z,19.00
2019-01-26T09:06:08.365Z,17.77
2019-01-26T09:08:37.409Z,18.27
2019-01-26T09:11:06.813Z,17.75
2019-01-26T09:13:35.547Z,18.35
2019-01-26T09:16:04.512Z,17.92
2019-01-26T09:18:38.731Z,18.80
2019-01-26T09:21:03.715Z,18.95
2019-01-26T09:23:32.489Z,19.48
2019-01-26T09:26:01.373Z,19.98
2019-01-26T09:28:30.244Z,18.23
2019-01-26T09:31:00.093Z,19.40
2019-01-26T09:33:28.801Z,19.25
2019-01-26T09:35:57.808Z,18.40
2019-01-26T09:38:26.848Z,22.62
2019-01-26T09:40:55.606Z,19.02
2019-01-26T09:43:24.288Z,20.27
2019-01-26T09:45:53.325Z,19.37
2019-01-26T09:48:22.418Z,18.87
2019-01-26T09:50:51.502Z,19.52
2019-01-26T09:53:20.184Z,21.15
2019-01-26T09:55:48.917Z,19.80
2019-01-26T09:58:17.657Z,20.40
2019-01-26T10:00:46.404Z,20.02
2019-01-26T10:03:15.111Z,19.63
2019-01-26T10:05:43.832Z,18.82
2019-01-26T10:08:12.538Z,20.97
2019-01-26T10:10:41.371Z,19.27
2019-01-26T10:13:10.524Z,17.57
2019-01-26T10:15:39.520Z,18.47
2019-01-26T10:18:08.619Z,17.65
2019-01-26T10:20:38.166Z,19.42
2019-01-26T10:23:06.834Z,17.98
2019-01-26T10:25:35.947Z,16.75
2019-01-26T10:28:05.122Z,16.05
2019-01-26T10:30:58.566Z,15.53
2019-01-26T10:33:27.279Z,15.05
2019-01-26T10:36:18.723Z,14.73
2019-01-26T10:39:09.978Z,13.23
2019-01-26T10:41:47.727Z,12.73
2019-01-26T10:44:26.242Z,14.40
2019-01-26T10:46:55.332Z,12.90
2019-01-26T10:49:24.030Z,13.83
2019-01-26T10:51:52.786Z,14.03
2019-01-26T10:54:23.329Z,11.73
2019-01-26T10:56:52.532Z,12.37
2019-01-26T10:59:21.355Z,12.25
2019-01-26T11:01:50.394Z,13.55
2019-01-26T11:04:19.728Z,12.98
2019-01-26T11:06:48.914Z,12.23
2019-01-26T11:09:18.029Z,12.40
2019-01-26T11:11:46.844Z,13.18
2019-01-26T11:14:15.875Z,12.63
2019-01-26T11:16:44.721Z,12.07
2019-01-26T11:19:13.514Z,11.80
2019-01-26T11:21:42.249Z,12.73
2019-01-26T11:24:11.038Z,12.97
2019-01-26T11:26:40.608Z,12.75
2019-01-26T11:29:10.031Z,11.85
2019-01-26T11:31:38.918Z,12.28
2019-01-26T11:34:07.728Z,12.35
2019-01-26T11:36:36.518Z,12.20
2019-01-26T11:39:09.243Z,11.78
2019-01-26T11:41:38.293Z,12.10
2019-01-26T11:44:07.111Z,11.97
2019-01-26T11:46:57.436Z,11.05
2019-01-26T11:49:26.209Z,11.40
2019-01-26T11:52:12.472Z,12.65
2019-01-26T11:55:11.237Z,11.50
2019-01-26T11:57:40.675Z,12.82
2019-01-26T12:00:32.388Z,11.97
2019-01-26T12:03:09.569Z,11.12
2019-01-26T12:05:43.172Z,12.57
2019-01-26T12:08:11.890Z,10.43
2019-01-26T12:10:40.832Z,11.20
2019-01-26T12:13:09.801Z,10.68
2019-01-26T12:15:38.770Z,10.65
2019-01-26T12:18:07.624Z,11.07
2019-01-26T12:20:36.571Z,11.23
2019-01-26T12:23:05.446Z,12.05
2019-01-26T12:25:34.192Z,11.15
2019-01-26T12:28:03.038Z,9.40
2019-01-26T12:30:32.612Z,9.60
2019-01-26T12:33:01.371Z,10.28
2019-01-26T12:35:30.480Z,8.90
2019-01-26T12:37:59.195Z,9.03
2019-01-26T12:40:27.918Z,7.53
2019-01-26T12:42:56.617Z,8.65
2019-01-26T12:45:25.392Z,7.40
2019-01-26T12:47:54.159Z,8.48
2019-01-26T12:50:23.006Z,8.48
2019-01-26T12:52:51.800Z,8.53
2019-01-26T12:55:20.802Z,8.43
2019-01-26T12:57:49.536Z,8.20
2019-01-26T13:00:19.515Z,7.92
2019-01-26T13:02:49.439Z,7.42
2019-01-26T13:05:18.381Z,7.78
2019-01-26T13:07:48.760Z,7.12
2019-01-26T13:10:21.099Z,6.75
2019-01-26T13:12:50.280Z,6.97
2019-01-26T13:15:20.012Z,6.57
2019-01-26T13:17:48.860Z,6.10
2019-01-26T13:20:18.255Z,6.35
2019-01-26T13:22:46.990Z,6.05
2019-01-26T13:25:16.797Z,5.80
2019-01-26T13:27:46.571Z,6.08
2019-01-26T13:30:17.133Z,5.97
2019-01-26T13:32:46.647Z,5.60
2019-01-26T13:35:16.183Z,4.53
2019-01-26T13:37:45.066Z,4.65
2019-01-26T13:40:16.282Z,4.53
2019-01-26T13:42:45.089Z,4.33
2019-01-26T13:45:15.547Z,4.00
2019-01-26T13:47:44.866Z,4.10
2019-01-26T13:50:13.787Z,4.35
2019-01-26T13:52:43.093Z,3.70
2019-01-26T13:55:16.897Z,4.67
2019-01-26T13:57:45.889Z,4.60
2019-01-26T14:00:26.894Z,4.40
2019-01-26T14:02:56.053Z,4.17
2019-01-26T14:05:24.810Z,4.83
2019-01-26T14:07:53.503Z,3.70
2019-01-26T14:10:22.721Z,4.00
2019-01-26T14:12:52.095Z,3.87
2019-01-26T14:15:21.383Z,4.10
2019-01-26T14:17:50.615Z,4.75
2019-01-26T14:20:20.997Z,3.52
2019-01-26T14:22:50.126Z,3.83
2019-01-26T14:25:19.128Z,4.08
2019-01-26T14:27:48.284Z,3.70
2019-01-26T14:30:29.412Z,3.92
2019-01-26T14:33:02.093Z,3.90
2019-01-26T14:35:38.270Z,4.28
2019-01-26T14:38:07.435Z,4.17
2019-01-26T14:40:36.272Z,4.22
2019-01-26T14:43:05.584Z,4.97
2019-01-26T14:45:34.351Z,4.95
2019-01-26T14:48:03.369Z,4.97
2019-01-26T14:50:32.119Z,4.85
2019-01-26T14:53:00.831Z,4.90
2019-01-26T14:55:29.619Z,5.00
2019-01-26T14:57:59.108Z,4.87
2019-01-26T15:00:30.157Z,5.20
2019-01-26T15:02:59.569Z,4.78
2019-01-26T15:05:28.567Z,5.10
2019-01-26T15:07:57.597Z,5.15
2019-01-26T15:10:26.556Z,4.90
2019-01-26T15:12:58.225Z,5.03
2019-01-26T15:15:27.078Z,4.93
2019-01-26T15:17:55.825Z,5.47
2019-01-26T15:20:27.926Z,5.60
2019-01-26T15:22:56.643Z,5.90
2019-01-26T15:25:25.508Z,5.17
2019-01-26T15:27:54.674Z,5.83
2019-01-26T15:30:26.449Z,5.67
2019-01-26T15:32:55.314Z,7.00
2019-01-26T15:35:24.606Z,7.22
2019-01-26T15:37:53.356Z,6.97
2019-01-26T15:40:22.196Z,6.35
2019-01-26T15:42:51.159Z,7.28
2019-01-26T15:45:22.513Z,7.25
2019-01-26T15:47:52.728Z,7.95
2019-01-26T15:50:21.573Z,7.92
2019-01-26T15:52:50.397Z,8.35
2019-01-26T15:55:21.185Z,8.33
2019-01-26T15:57:50.250Z,7.83
2019-01-26T16:00:21.392Z,8.25
2019-01-26T16:02:50.212Z,8.63
2019-01-26T16:05:19.089Z,7.27
2019-01-26T16:07:47.906Z,8.05
2019-01-26T16:10:18.743Z,8.05
2019-01-26T16:12:47.600Z,7.35
2019-01-26T16:15:18.715Z,7.47
2019-01-26T16:17:47.559Z,7.90
2019-01-26T16:20:20.431Z,7.87
2019-01-26T16:22:51.033Z,7.85
2019-01-26T16:25:21.149Z,7.53
2019-01-26T16:27:50.141Z,7.75
2019-01-26T16:30:26.983Z,7.33
2019-01-26T16:32:56.647Z,8.00
2019-01-26T16:35:25.655Z,7.10
2019-01-26T16:37:54.557Z,8.05
2019-01-26T16:40:26.478Z,8.28
2019-01-26T16:43:09.221Z,8.80
2019-01-26T16:45:39.643Z,8.38
2019-01-26T16:48:11.580Z,8.28
2019-01-26T16:50:40.409Z,8.70
2019-01-26T16:53:09.294Z,8.80
2019-01-26T16:55:38.403Z,9.15
2019-01-26T16:58:07.287Z,8.58
2019-01-26T17:00:47.543Z,8.75
2019-01-26T17:03:27.477Z,8.80
2019-01-26T17:05:55.023Z,8.70
2019-01-26T17:08:23.848Z,8.25
2019-01-26T17:10:52.713Z,8.33
2019-01-26T17:13:21.820Z,8.10
2019-01-26T17:15:50.691Z,8.85
2019-01-26T17:18:19.725Z,8.83
2019-01-26T17:20:48.537Z,9.25
2019-01-26T17:23:17.714Z,9.83
2019-01-26T17:25:46.819Z,10.03
2019-01-26T17:28:15.550Z,9.98
2019-01-26T17:30:44.912Z,10.35
2019-01-26T17:33:13.746Z,10.03
2019-01-26T17:35:42.578Z,9.78
2019-01-26T17:38:11.327Z,11.48
2019-01-26T17:40:40.019Z,11.08
2019-01-26T17:43:08.848Z,11.68
2019-01-26T17:45:37.863Z,10.43
2019-01-26T17:48:07.972Z,11.50
2019-01-26T17:50:42.078Z,10.25
2019-01-26T17:53:07.551Z,11.05
2019-01-26T17:55:36.890Z,9.83
2019-01-26T17:58:07.514Z,10.53
2019-01-26T18:00:50.336Z,10.60
2019-01-26T18:03:19.098Z,10.40
2019-01-26T18:05:48.023Z,10.18
2019-01-26T18:08:17.371Z,9.33
2019-01-26T18:10:48.924Z,10.10
2019-01-26T18:13:17.834Z,10.03
2019-01-26T18:15:46.856Z,10.00
2019-01-26T18:18:15.995Z,9.97
2019-01-26T18:20:49.133Z,10.48
2019-01-26T18:23:17.532Z,9.78
2019-01-26T18:25:46.661Z,9.65
2019-01-26T18:28:15.492Z,10.95
2019-01-26T18:30:44.348Z,9.83
2019-01-26T18:33:13.135Z,10.65
2019-01-26T18:35:41.930Z,10.10
2019-01-26T18:38:10.786Z,9.40
2019-01-26T18:40:39.683Z,9.55
2019-01-26T18:43:08.881Z,9.70
2019-01-26T18:45:37.791Z,9.80
2019-01-26T18:48:06.860Z,10.23
2019-01-26T18:50:40.175Z,12.23
2019-01-26T18:53:10.860Z,10.65
2019-01-26T18:55:39.722Z,10.60
2019-01-26T18:58:08.507Z,9.28
2019-01-26T19:00:40.044Z,10.28
2019-01-26T19:03:36.424Z,9.95
2019-01-26T19:06:05.813Z,9.90
2019-01-26T19:08:34.567Z,10.00
2019-01-26T19:11:03.595Z,9.05
2019-01-26T19:13:32.368Z,10.38
2019-01-26T19:16:01.208Z,9.43
2019-01-26T19:18:30.346Z,9.88
2019-01-26T19:21:03.385Z,10.43
2019-01-26T19:23:30.286Z,9.23
2019-01-26T19:26:03.401Z,9.05
2019-01-26T19:28:32.222Z,8.98
2019-01-26T19:31:03.203Z,8.63
2019-01-26T19:33:32.254Z,8.33
2019-01-26T19:36:02.654Z,8.33
2019-01-26T19:38:31.924Z,7.53
2019-01-26T19:41:00.789Z,7.90
2019-01-26T19:43:29.829Z,8.33
2019-01-26T19:45:58.621Z,9.35
2019-01-26T19:48:27.370Z,9.25
2019-01-26T19:50:56.386Z,8.55
2019-01-26T19:53:25.176Z,9.35
2019-01-26T19:55:54.195Z,8.35
2019-01-26T19:58:23.239Z,8.78
2019-01-26T20:00:51.987Z,8.00
2019-01-26T20:03:20.826Z,8.43
2019-01-26T20:05:49.851Z,8.70
2019-01-26T20:08:18.845Z,7.90
2019-01-26T20:10:47.709Z,8.43
2019-01-26T20:13:16.668Z,8.78
2019-01-26T20:15:45.913Z,7.85
2019-01-26T20:18:23.068Z,8.03
2019-01-26T20:20:52.030Z,7.75
2019-01-26T20:23:21.692Z,7.25
2019-01-26T20:25:50.520Z,7.37
2019-01-26T20:28:19.290Z,7.83
2019-01-26T20:30:49.065Z,6.80
2019-01-26T20:33:18.217Z,6.70
2019-01-26T20:35:47.250Z,7.03
2019-01-26T20:38:16.287Z,6.40
2019-01-26T20:40:45.465Z,7.40
2019-01-26T20:43:14.653Z,6.78
2019-01-26T20:45:43.453Z,7.30
2019-01-26T20:48:13.024Z,7.37
2019-01-26T20:50:42.553Z,6.45
2019-01-26T20:53:13.606Z,6.95
2019-01-26T20:55:42.880Z,6.67
2019-01-26T20:58:11.829Z,7.00
2019-01-26T21:00:41.009Z,6.90
2019-01-26T21:03:10.863Z,6.92
2019-01-26T21:05:40.121Z,7.25
2019-01-26T21:08:10.148Z,7.37
2019-01-26T21:10:38.968Z,6.67
2019-01-26T21:13:07.889Z,6.70
2019-01-26T21:15:36.707Z,6.20
2019-01-26T21:18:05.650Z,6.50
2019-01-26T21:20:34.573Z,6.50
2019-01-26T21:23:03.281Z,6.95
2019-01-26T21:25:32.415Z,6.60
2019-01-26T21:28:01.379Z,6.17
2019-01-26T21:30:30.120Z,6.35
2019-01-26T21:32:58.887Z,7.00
2019-01-26T21:35:27.743Z,6.30
2019-01-26T21:37:56.514Z,6.10
2019-01-26T21:40:30.537Z,5.70
2019-01-26T21:43:00.574Z,6.20
2019-01-26T21:45:29.447Z,6.15
2019-01-26T21:48:00.257Z,6.20
2019-01-26T21:50:30.669Z,6.20
2019-01-26T21:52:59.526Z,6.62
2019-01-26T21:55:28.249Z,6.22
2019-01-26T21:57:57.090Z,6.40
2019-01-26T22:00:30.683Z,6.60
2019-01-26T22:02:59.499Z,6.25
2019-01-26T22:05:28.450Z,6.75
2019-01-26T22:07:57.379Z,7.08
2019-01-26T22:10:26.604Z,6.90
2019-01-26T22:12:55.739Z,7.00
2019-01-26T22:15:25.455Z,6.80
2019-01-26T22:17:57.213Z,7.00
2019-01-26T22:20:30.287Z,7.70
2019-01-26T22:22:59.190Z,7.22
2019-01-26T22:25:28.006Z,8.03
2019-01-26T22:27:58.084Z,7.78
2019-01-26T22:30:32.786Z,7.60
2019-01-26T22:33:01.627Z,8.00
2019-01-26T22:35:30.552Z,8.70
2019-01-26T22:37:59.367Z,8.08
2019-01-26T22:40:35.977Z,9.00
2019-01-26T22:43:05.678Z,8.98
2019-01-26T22:45:34.858Z,8.70
2019-01-26T22:48:03.712Z,9.35
2019-01-26T22:50:32.742Z,9.45
2019-01-26T22:53:01.687Z,9.63
2019-01-26T22:55:30.876Z,10.35
2019-01-26T22:57:59.864Z,9.90
2019-01-26T23:00:52.179Z,9.73
2019-01-26T23:03:24.396Z,10.05
2019-01-26T23:06:33.725Z,10.07
2019-01-26T23:09:11.527Z,10.70
2019-01-26T23:12:03.419Z,10.60
2019-01-26T23:15:07.185Z,11.08
2019-01-26T23:18:10.374Z,10.15
2019-01-26T23:21:04.884Z,11.40
2019-01-26T23:24:20.584Z,11.25
2019-01-26T23:27:14.496Z,11.50
2019-01-26T23:30:15.372Z,11.50
2019-01-26T23:32:45.070Z,12.28
2019-01-26T23:35:14.291Z,12.35
2019-01-26T23:37:44.096Z,12.93
2019-01-26T23:40:13.445Z,12.90
2019-01-26T23:42:42.291Z,14.33
2019-01-26T23:45:11.209Z,14.25
2019-01-26T23:47:40.247Z,15.20
2019-01-26T23:50:09.231Z,14.75
2019-01-26T23:52:38.037Z,13.28
2019-01-26T23:55:07.020Z,15.00
2019-01-26T23:57:35.866Z,13.80
